West Green, Georgia
Current Conditions -  °F | °C
As of 4:35 PM on Wednesday 17 Dec 2014 (Local Time) from KDQH Reporting Station
Clear Clear  
Wind Chill: 63°   Ceiling: Unl
Heat Index: 63°   Visibility: 10mi
Dew Point: 39°   Wind: 5mph
Humidity: 42%   Direction: 280°W
Pressure: 30.13"   Gusts: NA
Location:  31.61°N, 82.73°W
Report Text: KDQH 172135Z AUTO 28004KT 10SM CLR 17/04 A3013 RMK AO2
Loading
Personal Weather Stations






























Interactive Weather Map New forecast layout! Learn more

10-Day Weather Forecast

Advertisements
Track Severe Weather on mobile